createdAt,value
2017-09-29T00:02:21.916Z,25.50
2017-09-29T00:04:50.923Z,25.90
2017-09-29T00:07:18.535Z,27.23
2017-09-29T00:09:46.517Z,21.63
2017-09-29T00:12:14.562Z,24.63
2017-09-29T00:14:42.262Z,29.73
2017-09-29T00:17:09.837Z,30.13
2017-09-29T00:19:37.405Z,25.87
2017-09-29T00:22:05.425Z,24.40
2017-09-29T00:24:33.373Z,25.63
2017-09-29T00:27:01.876Z,31.23
2017-09-29T00:29:29.823Z,32.47
2017-09-29T00:31:57.458Z,32.30
2017-09-29T00:34:26.082Z,34.20
2017-09-29T00:36:53.760Z,39.70
2017-09-29T00:39:21.359Z,42.63
2017-09-29T00:41:48.934Z,32.00
2017-09-29T00:44:17.938Z,34.73
2017-09-29T00:46:47.999Z,36.53
2017-09-29T00:49:16.008Z,32.20
2017-09-29T00:51:43.595Z,32.37
2017-09-29T00:54:11.492Z,32.77
2017-09-29T00:56:40.316Z,37.43
2017-09-29T00:59:08.296Z,40.10
2017-09-29T01:01:36.254Z,38.47
2017-09-29T01:04:03.816Z,40.53
2017-09-29T01:06:31.756Z,34.97
2017-09-29T01:08:59.459Z,45.47
2017-09-29T01:11:27.537Z,34.40
2017-09-29T01:13:55.526Z,38.67
2017-09-29T01:16:23.115Z,32.13
2017-09-29T01:18:50.715Z,40.27
2017-09-29T01:21:18.306Z,40.60
2017-09-29T01:23:45.898Z,34.03
2017-09-29T01:26:13.588Z,38.43
2017-09-29T01:28:41.193Z,41.83
2017-09-29T01:31:08.784Z,46.50
2017-09-29T01:33:36.385Z,53.87
2017-09-29T01:36:03.959Z,40.63
2017-09-29T01:38:31.537Z,37.90
2017-09-29T01:40:59.109Z,42.17
2017-09-29T01:43:26.690Z,39.30
2017-09-29T01:45:54.285Z,32.67
2017-09-29T01:48:21.862Z,34.13
2017-09-29T01:50:51.500Z,34.27
2017-09-29T01:53:19.077Z,35.00
2017-09-29T01:55:46.973Z,68.40
2017-09-29T01:58:15.965Z,40.90
2017-09-29T02:00:43.585Z,74.73
2017-09-29T02:03:11.154Z,49.30
2017-09-29T02:05:40.280Z,56.77
2017-09-29T02:08:07.853Z,45.00
2017-09-29T02:10:36.412Z,36.27
2017-09-29T02:13:04.404Z,41.70
2017-09-29T02:15:31.996Z,30.40
2017-09-29T02:17:59.835Z,42.93
2017-09-29T02:20:27.381Z,30.10
2017-09-29T02:22:56.097Z,31.53
2017-09-29T02:25:23.686Z,31.33
2017-09-29T02:27:51.241Z,32.50
2017-09-29T02:30:18.854Z,32.93
2017-09-29T02:32:47.650Z,26.77
2017-09-29T02:35:15.636Z,32.90
2017-09-29T02:37:43.185Z,29.33
2017-09-29T02:40:11.113Z,31.20
2017-09-29T02:42:38.686Z,31.20
2017-09-29T02:45:07.399Z,31.53
2017-09-29T02:47:36.016Z,31.77
2017-09-29T02:50:04.561Z,31.53
2017-09-29T02:52:32.179Z,33.83
2017-09-29T02:54:59.728Z,32.63
2017-09-29T02:57:37.580Z,33.17
2017-09-29T03:00:09.166Z,34.90
2017-09-29T03:02:41.064Z,33.63
2017-09-29T03:05:11.076Z,33.20
2017-09-29T03:07:38.676Z,35.03
2017-09-29T03:10:06.223Z,36.87
2017-09-29T03:12:37.177Z,29.57
2017-09-29T03:15:04.799Z,31.07
2017-09-29T03:17:32.380Z,32.43
2017-09-29T03:20:00.121Z,32.47
2017-09-29T03:22:27.692Z,51.83
2017-09-29T03:24:55.272Z,43.63
2017-09-29T03:27:22.837Z,34.60
2017-09-29T03:29:50.424Z,32.60
2017-09-29T03:32:19.236Z,28.03
2017-09-29T03:34:46.814Z,29.60
2017-09-29T03:37:14.402Z,45.93
2017-09-29T03:39:41.957Z,35.90
2017-09-29T03:42:10.316Z,41.30
2017-09-29T03:44:39.459Z,31.13
2017-09-29T03:47:08.480Z,34.70
2017-09-29T03:49:36.055Z,32.40
2017-09-29T03:52:07.005Z,44.17
2017-09-29T03:54:38.712Z,80.80
2017-09-29T03:57:09.899Z,29.53
2017-09-29T03:59:39.066Z,40.80
2017-09-29T04:02:08.151Z,28.67
2017-09-29T04:04:35.729Z,53.13
2017-09-29T04:07:03.709Z,81.60
2017-09-29T04:09:31.778Z,70.97
2017-09-29T04:11:59.707Z,57.20
2017-09-29T04:14:30.286Z,66.83
2017-09-29T04:16:57.885Z,131.37
2017-09-29T04:19:25.512Z,66.30
2017-09-29T04:21:53.151Z,154.33
2017-09-29T04:24:21.329Z,57.93
2017-09-29T04:26:49.350Z,57.00
2017-09-29T04:29:17.044Z,59.77
2017-09-29T04:31:45.076Z,26.07
2017-09-29T04:34:12.649Z,25.00
2017-09-29T04:36:40.254Z,28.30
2017-09-29T04:39:07.793Z,45.87
2017-09-29T04:41:35.354Z,44.27
2017-09-29T04:44:08.437Z,27.93
2017-09-29T04:46:36.391Z,38.53
2017-09-29T04:49:05.320Z,51.37
2017-09-29T04:51:34.611Z,45.70
2017-09-29T04:54:02.280Z,30.87
2017-09-29T04:56:29.851Z,40.60
2017-09-29T04:58:58.136Z,27.40
2017-09-29T05:01:25.852Z,28.50
2017-09-29T05:03:55.781Z,42.80
2017-09-29T05:06:23.806Z,40.10
2017-09-29T05:08:52.229Z,36.30
2017-09-29T05:11:19.801Z,24.27
2017-09-29T05:13:48.055Z,21.17
2017-09-29T05:16:15.609Z,22.20
2017-09-29T05:18:43.250Z,32.90
2017-09-29T05:21:10.827Z,28.03
2017-09-29T05:23:38.384Z,21.03
2017-09-29T05:26:05.979Z,21.33
2017-09-29T05:28:33.608Z,22.50
2017-09-29T05:31:01.221Z,20.00
2017-09-29T05:33:30.637Z,24.07
2017-09-29T05:35:58.277Z,18.63
2017-09-29T05:38:25.844Z,21.20
2017-09-29T05:40:53.405Z,38.27
2017-09-29T05:43:21.057Z,23.90
2017-09-29T05:45:50.391Z,31.20
2017-09-29T05:48:18.365Z,25.43
2017-09-29T05:50:46.889Z,40.43
2017-09-29T05:53:15.746Z,36.83
2017-09-29T05:55:43.342Z,45.30
2017-09-29T05:58:11.076Z,28.90
2017-09-29T06:00:38.832Z,23.80
2017-09-29T06:03:06.396Z,27.27
2017-09-29T06:05:35.527Z,24.23
2017-09-29T06:08:03.094Z,35.83
2017-09-29T06:10:30.642Z,27.10
2017-09-29T06:12:59.549Z,21.90
2017-09-29T06:15:29.540Z,35.40
2017-09-29T06:17:57.227Z,33.23
2017-09-29T06:20:25.250Z,25.83
2017-09-29T06:22:52.862Z,25.87
2017-09-29T06:25:20.478Z,26.30
2017-09-29T06:27:48.065Z,27.03
2017-09-29T06:30:15.704Z,26.70
2017-09-29T06:32:43.298Z,46.93
2017-09-29T06:35:12.282Z,26.33
2017-09-29T06:37:40.024Z,35.20
2017-09-29T06:40:07.640Z,29.50
2017-09-29T06:42:35.297Z,25.13
2017-09-29T06:45:02.872Z,29.40
2017-09-29T06:47:30.683Z,30.60
2017-09-29T06:49:58.647Z,24.60
2017-09-29T06:52:26.165Z,25.90
2017-09-29T06:54:54.057Z,26.63
2017-09-29T06:57:23.404Z,25.00
2017-09-29T06:59:51.421Z,24.53
2017-09-29T07:02:19.007Z,24.97
2017-09-29T07:04:47.765Z,22.83
2017-09-29T07:07:15.368Z,26.13
2017-09-29T07:09:42.926Z,25.20
2017-09-29T07:12:10.491Z,26.43
2017-09-29T07:14:38.087Z,25.13
2017-09-29T07:17:05.641Z,28.07
2017-09-29T07:19:33.492Z,29.23
2017-09-29T07:22:01.461Z,29.00
2017-09-29T07:24:45.131Z,27.67
2017-09-29T07:27:19.896Z,23.93
2017-09-29T07:29:50.578Z,22.53
2017-09-29T07:32:22.657Z,24.40
2017-09-29T07:34:50.266Z,28.10
2017-09-29T07:37:20.356Z,23.17
2017-09-29T07:39:48.090Z,29.63
2017-09-29T07:42:15.696Z,31.40
2017-09-29T07:44:43.284Z,23.83
2017-09-29T07:47:10.903Z,21.57
2017-09-29T07:49:38.511Z,21.57
2017-09-29T07:52:06.542Z,19.30
2017-09-29T07:54:34.120Z,16.80
2017-09-29T07:57:01.679Z,19.50
2017-09-29T07:59:30.722Z,17.40
2017-09-29T08:01:59.670Z,15.43
2017-09-29T08:04:27.673Z,15.77
2017-09-29T08:06:55.307Z,17.63
2017-09-29T08:09:23.038Z,15.43
2017-09-29T08:11:53.528Z,15.17
2017-09-29T08:14:21.128Z,18.20
2017-09-29T08:16:49.428Z,13.20
2017-09-29T08:19:17.025Z,14.03
2017-09-29T08:21:44.589Z,16.23
2017-09-29T08:24:12.625Z,14.43
2017-09-29T08:26:40.209Z,15.40
2017-09-29T08:29:07.810Z,15.03
2017-09-29T08:31:35.879Z,16.13
2017-09-29T08:34:09.035Z,16.17
2017-09-29T08:36:37.140Z,14.63
2017-09-29T08:39:04.723Z,21.00
2017-09-29T08:41:32.324Z,17.80
2017-09-29T08:44:01.196Z,23.30
2017-09-29T08:46:29.436Z,20.10
2017-09-29T08:48:59.023Z,34.20
2017-09-29T08:51:26.693Z,30.23
2017-09-29T08:53:54.243Z,18.40
2017-09-29T08:56:21.815Z,22.73
2017-09-29T08:58:49.441Z,23.97
2017-09-29T09:01:17.338Z,22.13
2017-09-29T09:03:44.910Z,20.30
2017-09-29T09:06:12.883Z,23.33
2017-09-29T09:08:40.516Z,24.10
2017-09-29T09:11:08.089Z,21.37
2017-09-29T09:13:37.162Z,23.90
2017-09-29T09:16:04.868Z,24.13
2017-09-29T09:18:32.534Z,19.13
2017-09-29T09:21:00.135Z,28.10
2017-09-29T09:23:28.183Z,21.67
2017-09-29T09:25:55.774Z,19.30
2017-09-29T09:28:24.938Z,22.33
2017-09-29T09:30:53.082Z,29.27
2017-09-29T09:33:21.115Z,22.17
2017-09-29T09:35:49.101Z,16.00
2017-09-29T09:38:16.689Z,18.70
2017-09-29T09:40:44.272Z,20.77
2017-09-29T09:43:11.887Z,25.87
2017-09-29T09:45:39.475Z,20.63
2017-09-29T09:48:07.035Z,18.10
2017-09-29T09:50:34.667Z,23.43
2017-09-29T09:53:05.829Z,13.93
2017-09-29T09:55:34.137Z,12.50
2017-09-29T09:58:02.429Z,14.87
2017-09-29T10:00:30.494Z,14.60
2017-09-29T10:02:58.052Z,20.93
2017-09-29T10:05:26.023Z,17.70
2017-09-29T10:07:53.609Z,16.37
2017-09-29T10:10:21.926Z,16.80
2017-09-29T10:12:49.881Z,18.27
2017-09-29T10:15:17.455Z,22.57
2017-09-29T10:17:45.071Z,19.27
2017-09-29T10:20:12.652Z,17.50
2017-09-29T10:22:40.576Z,19.30
2017-09-29T10:25:09.484Z,20.33
2017-09-29T10:27:37.754Z,15.20
2017-09-29T10:30:05.315Z,17.13
2017-09-29T10:32:32.889Z,15.70
2017-09-29T10:35:00.657Z,16.70
2017-09-29T10:37:29.895Z,13.80
2017-09-29T10:39:57.537Z,16.70
2017-09-29T10:42:27.186Z,23.00
2017-09-29T10:44:55.739Z,17.77
2017-09-29T10:47:24.279Z,14.17
2017-09-29T10:49:51.937Z,19.27
2017-09-29T10:52:21.340Z,16.57
2017-09-29T10:54:48.951Z,25.50
2017-09-29T10:57:16.559Z,13.50
2017-09-29T10:59:44.136Z,14.23
2017-09-29T11:02:13.153Z,16.03
2017-09-29T11:04:40.754Z,14.97
2017-09-29T11:07:08.332Z,21.93
2017-09-29T11:09:35.976Z,18.30
2017-09-29T11:12:03.565Z,14.23
2017-09-29T11:14:31.640Z,14.30
2017-09-29T11:16:59.372Z,17.03
2017-09-29T11:19:26.959Z,17.63
2017-09-29T11:21:54.919Z,20.73
2017-09-29T11:24:22.505Z,18.23
2017-09-29T11:26:50.097Z,15.50
2017-09-29T11:29:17.669Z,15.60
2017-09-29T11:31:45.398Z,17.97
2017-09-29T11:34:14.275Z,15.80
2017-09-29T11:36:42.440Z,14.33
2017-09-29T11:39:10.023Z,10.80
2017-09-29T11:41:37.592Z,8.83
2017-09-29T11:44:05.375Z,10.37
2017-09-29T11:46:32.948Z,10.40
2017-09-29T11:49:00.551Z,16.53
2017-09-29T11:51:28.126Z,13.43
2017-09-29T11:53:55.722Z,15.03
2017-09-29T11:56:23.332Z,9.97
2017-09-29T11:58:50.910Z,12.03
2017-09-29T12:01:20.352Z,11.70
2017-09-29T12:03:47.961Z,15.50
2017-09-29T12:06:15.696Z,9.40
2017-09-29T12:08:43.285Z,11.60
2017-09-29T12:11:10.925Z,10.70
2017-09-29T12:13:38.518Z,11.47
2017-09-29T12:16:06.482Z,10.00
2017-09-29T12:18:34.066Z,10.17
2017-09-29T12:21:07.233Z,9.63
2017-09-29T12:23:36.303Z,13.17
2017-09-29T12:26:04.470Z,11.23
2017-09-29T12:28:32.351Z,10.87
2017-09-29T12:31:00.296Z,9.10
2017-09-29T12:33:27.883Z,12.90
2017-09-29T12:35:55.476Z,8.30
2017-09-29T12:38:23.405Z,9.77
2017-09-29T12:40:51.001Z,11.40
2017-09-29T12:43:19.266Z,10.10
2017-09-29T12:45:46.875Z,9.60
2017-09-29T12:48:14.463Z,8.90
2017-09-29T12:50:42.089Z,9.17
2017-09-29T12:53:09.635Z,9.83
2017-09-29T12:55:37.764Z,9.13
2017-09-29T12:58:05.318Z,10.80
2017-09-29T13:00:32.906Z,8.03
2017-09-29T13:03:00.558Z,9.97
2017-09-29T13:05:28.120Z,9.90
2017-09-29T13:07:56.660Z,10.90
2017-09-29T13:10:24.218Z,11.23
2017-09-29T13:12:51.857Z,7.73
2017-09-29T13:15:20.857Z,7.30
2017-09-29T13:17:48.821Z,6.83
2017-09-29T13:20:16.415Z,6.63
2017-09-29T13:22:44.016Z,10.13
2017-09-29T13:25:11.605Z,7.20
2017-09-29T13:27:39.181Z,5.70
2017-09-29T13:30:09.287Z,7.63
2017-09-29T13:32:37.877Z,6.07
2017-09-29T13:35:05.428Z,6.23
2017-09-29T13:37:33.017Z,5.40
2017-09-29T13:40:00.572Z,5.80
2017-09-29T13:42:28.155Z,5.37
2017-09-29T13:44:55.738Z,6.20
2017-09-29T13:47:23.689Z,8.77
2017-09-29T13:49:51.637Z,6.20
2017-09-29T13:52:19.204Z,8.93
2017-09-29T13:54:46.817Z,8.77
2017-09-29T13:57:14.406Z,10.50
2017-09-29T13:59:42.059Z,7.77
2017-09-29T14:02:09.845Z,6.60
2017-09-29T14:04:37.838Z,6.50
2017-09-29T14:07:05.397Z,8.10
2017-09-29T14:09:32.968Z,15.37
2017-09-29T14:12:00.565Z,7.47
2017-09-29T14:14:28.147Z,8.90
2017-09-29T14:16:56.481Z,7.70
2017-09-29T14:19:25.949Z,7.07
2017-09-29T14:21:53.529Z,7.13
2017-09-29T14:24:21.115Z,8.63
2017-09-29T14:26:50.195Z,12.30
2017-09-29T14:29:17.786Z,15.70
2017-09-29T14:31:45.361Z,14.57
2017-09-29T14:34:12.947Z,18.07
2017-09-29T14:36:40.496Z,16.97
2017-09-29T14:39:08.110Z,17.00
2017-09-29T14:41:36.029Z,18.73
2017-09-29T14:44:04.063Z,17.40
2017-09-29T14:46:31.655Z,19.40
2017-09-29T14:48:59.214Z,22.23
2017-09-29T14:51:26.815Z,31.47
2017-09-29T14:53:54.801Z,26.20
2017-09-29T14:56:22.395Z,33.70
2017-09-29T14:58:50.621Z,30.90
2017-09-29T15:01:18.234Z,31.53
2017-09-29T15:03:45.821Z,32.20
2017-09-29T15:06:14.917Z,31.67
2017-09-29T15:08:42.526Z,30.53
2017-09-29T15:11:10.106Z,27.33
2017-09-29T15:13:38.422Z,29.63
2017-09-29T15:16:06.023Z,24.30
2017-09-29T15:18:33.617Z,23.00
2017-09-29T15:21:01.197Z,21.13
2017-09-29T15:23:28.980Z,18.20
2017-09-29T15:25:56.967Z,32.33
2017-09-29T15:28:24.521Z,18.50
2017-09-29T15:30:52.462Z,15.80
2017-09-29T15:33:20.461Z,14.83
2017-09-29T15:35:48.429Z,17.17
2017-09-29T15:38:16.377Z,16.60
2017-09-29T15:40:44.403Z,18.93
2017-09-29T15:43:12.649Z,18.00
2017-09-29T15:45:40.218Z,18.00
2017-09-29T15:48:07.848Z,21.40
2017-09-29T15:50:35.559Z,20.07
2017-09-29T15:53:03.160Z,15.23
2017-09-29T15:55:30.742Z,14.83
2017-09-29T15:57:58.325Z,18.07
2017-09-29T16:00:25.945Z,17.10
2017-09-29T16:02:53.642Z,18.93
2017-09-29T16:05:22.052Z,19.13
2017-09-29T16:07:49.623Z,18.10
2017-09-29T16:10:17.233Z,15.50
2017-09-29T16:12:46.408Z,18.87
2017-09-29T16:15:14.360Z,20.67
2017-09-29T16:17:42.522Z,21.50
2017-09-29T16:20:10.144Z,18.43
2017-09-29T16:22:37.763Z,19.07
2017-09-29T16:25:06.070Z,17.70
2017-09-29T16:27:33.720Z,17.20
2017-09-29T16:30:02.257Z,18.43
2017-09-29T16:32:29.893Z,19.60
2017-09-29T16:34:57.461Z,17.57
2017-09-29T16:37:26.257Z,19.63
2017-09-29T16:39:53.841Z,18.83
2017-09-29T16:42:22.770Z,23.03
2017-09-29T16:44:50.874Z,22.60
2017-09-29T16:47:20.000Z,18.40
2017-09-29T16:49:49.009Z,21.60
2017-09-29T16:52:16.593Z,22.37
2017-09-29T16:54:44.192Z,19.50
2017-09-29T16:57:11.804Z,18.07
2017-09-29T16:59:39.365Z,18.27
2017-09-29T17:02:06.920Z,19.17
2017-09-29T17:04:34.544Z,18.17
2017-09-29T17:07:02.115Z,25.93
2017-09-29T17:09:29.852Z,20.83
2017-09-29T17:11:57.438Z,19.97
2017-09-29T17:14:25.097Z,22.03
2017-09-29T17:16:52.715Z,19.43
2017-09-29T17:19:20.770Z,23.27
2017-09-29T17:21:48.416Z,18.10
2017-09-29T17:24:16.333Z,17.87
2017-09-29T17:26:45.372Z,18.60
2017-09-29T17:29:13.429Z,17.73
2017-09-29T17:31:41.185Z,18.00
2017-09-29T17:34:08.783Z,22.80
2017-09-29T17:36:37.123Z,22.33
2017-09-29T17:39:06.741Z,24.80
2017-09-29T17:41:34.340Z,22.30
2017-09-29T17:44:02.373Z,24.63
2017-09-29T17:46:29.941Z,25.33
2017-09-29T17:49:00.056Z,24.83
2017-09-29T17:51:28.698Z,24.33
2017-09-29T17:53:56.285Z,25.07
2017-09-29T17:56:23.910Z,21.47
2017-09-29T17:58:51.524Z,21.00
2017-09-29T18:01:19.635Z,18.60
2017-09-29T18:03:47.597Z,22.33
2017-09-29T18:06:16.551Z,20.77
2017-09-29T18:08:44.152Z,21.67
2017-09-29T18:11:12.466Z,22.40
2017-09-29T18:13:40.086Z,23.43
2017-09-29T18:16:11.599Z,24.17
2017-09-29T18:18:39.240Z,24.13
2017-09-29T18:21:07.725Z,21.10
2017-09-29T18:23:37.037Z,22.87
2017-09-29T18:26:05.066Z,20.17
2017-09-29T18:28:32.817Z,45.47
2017-09-29T18:31:00.417Z,46.57
2017-09-29T18:33:28.011Z,29.53
2017-09-29T18:35:55.638Z,26.00
2017-09-29T18:38:23.268Z,22.63
2017-09-29T18:41:01.007Z,26.03
2017-09-29T18:43:32.883Z,25.63
2017-09-29T18:46:16.767Z,23.50
2017-09-29T18:51:16.996Z,19.83
2017-09-29T18:53:45.329Z,20.07
2017-09-29T18:56:14.542Z,21.70
2017-09-29T18:58:42.489Z,22.17
2017-09-29T19:01:11.469Z,20.50
2017-09-29T19:03:40.525Z,24.30
2017-09-29T19:06:08.137Z,20.80
2017-09-29T19:08:37.073Z,20.73
2017-09-29T19:11:04.690Z,27.10
2017-09-29T19:13:32.312Z,25.37
2017-09-29T19:15:59.958Z,29.33
2017-09-29T19:18:27.560Z,31.60
2017-09-29T19:20:55.379Z,29.27
2017-09-29T19:23:23.010Z,31.30
2017-09-29T19:25:53.656Z,38.57
2017-09-29T19:28:22.011Z,31.10
2017-09-29T19:30:49.597Z,29.37
2017-09-29T19:33:17.219Z,27.13
2017-09-29T19:35:46.761Z,30.87
2017-09-29T19:38:15.862Z,31.80
2017-09-29T19:40:43.470Z,28.47
2017-09-29T19:43:15.428Z,37.70
2017-09-29T19:45:43.411Z,27.70
2017-09-29T19:48:11.546Z,35.77
2017-09-29T19:50:39.119Z,33.10
2017-09-29T19:53:06.925Z,28.00
2017-09-29T19:55:34.591Z,31.00
2017-09-29T19:58:02.196Z,33.10
2017-09-29T20:00:29.830Z,34.83
2017-09-29T20:03:01.441Z,31.93
2017-09-29T20:05:31.194Z,32.10
2017-09-29T20:07:58.786Z,36.57
2017-09-29T20:10:28.999Z,34.13
2017-09-29T20:12:56.606Z,34.07
2017-09-29T20:15:24.239Z,32.37
2017-09-29T20:17:53.100Z,32.03
2017-09-29T20:20:23.474Z,32.23
2017-09-29T20:22:53.388Z,35.10
2017-09-29T20:25:20.944Z,35.30
2017-09-29T20:27:48.542Z,37.20
2017-09-29T20:30:16.179Z,30.93
2017-09-29T20:32:43.738Z,34.27
2017-09-29T20:35:13.916Z,35.43
2017-09-29T20:37:42.333Z,30.90
2017-09-29T20:40:13.169Z,32.90
2017-09-29T20:42:43.020Z,37.97
2017-09-29T20:45:10.626Z,31.50
2017-09-29T20:47:42.783Z,34.03
2017-09-29T20:50:10.357Z,36.03
2017-09-29T20:52:38.980Z,30.50
2017-09-29T20:55:06.548Z,38.70
2017-09-29T20:57:37.195Z,33.50
2017-09-29T21:00:07.085Z,35.00
2017-09-29T21:02:34.689Z,32.67
2017-09-29T21:05:02.757Z,39.27
2017-09-29T21:07:31.544Z,40.60
2017-09-29T21:09:59.139Z,32.80
2017-09-29T21:12:29.434Z,40.50
2017-09-29T21:14:57.168Z,35.90
2017-09-29T21:17:26.141Z,38.90
2017-09-29T21:19:53.735Z,39.80
2017-09-29T21:22:21.344Z,35.90
2017-09-29T21:24:50.293Z,35.40
2017-09-29T21:27:18.516Z,35.37
2017-09-29T21:29:46.501Z,45.20
2017-09-29T21:32:16.923Z,39.03
2017-09-29T21:34:44.497Z,33.63
2017-09-29T21:37:12.090Z,33.23
2017-09-29T21:39:40.059Z,36.37
2017-09-29T21:42:07.643Z,33.90
2017-09-29T21:44:35.239Z,35.60
2017-09-29T21:47:03.575Z,42.10
2017-09-29T21:49:31.148Z,36.20
2017-09-29T21:51:58.758Z,35.73
2017-09-29T21:54:26.356Z,38.43
2017-09-29T21:56:53.985Z,34.67
2017-09-29T21:59:22.822Z,35.77
2017-09-29T22:01:50.432Z,33.83
2017-09-29T22:04:18.411Z,32.87
2017-09-29T22:06:45.999Z,34.90
2017-09-29T22:09:13.577Z,38.33
2017-09-29T22:11:41.610Z,41.73
2017-09-29T22:14:09.191Z,36.43
2017-09-29T22:16:36.779Z,37.10
2017-09-29T22:19:04.374Z,34.50
2017-09-29T22:21:31.963Z,38.97
2017-09-29T22:23:59.553Z,36.70
2017-09-29T22:26:27.149Z,34.20
2017-09-29T22:28:55.047Z,37.17
2017-09-29T22:31:22.607Z,38.13
2017-09-29T22:33:51.004Z,39.37
2017-09-29T22:36:18.607Z,35.97
2017-09-29T22:38:46.176Z,38.07
2017-09-29T22:41:13.772Z,31.80
2017-09-29T22:43:41.701Z,38.50
2017-09-29T22:46:09.316Z,31.30
2017-09-29T22:48:37.234Z,35.23
2017-09-29T22:51:05.241Z,37.40
2017-09-29T22:53:33.616Z,34.50
2017-09-29T22:56:01.204Z,34.63
2017-09-29T22:58:30.534Z,34.30
2017-09-29T23:00:58.121Z,40.10
2017-09-29T23:03:25.712Z,34.53
2017-09-29T23:05:53.283Z,31.03
2017-09-29T23:08:21.057Z,33.90
2017-09-29T23:10:49.469Z,33.67
2017-09-29T23:13:17.022Z,41.17
2017-09-29T23:15:44.622Z,34.37
2017-09-29T23:18:12.184Z,31.87
2017-09-29T23:20:43.300Z,31.83
2017-09-29T23:23:10.904Z,36.13
2017-09-29T23:25:38.507Z,32.10
2017-09-29T23:28:06.107Z,34.30
2017-09-29T23:30:33.710Z,33.43
2017-09-29T23:33:01.266Z,38.20
2017-09-29T23:35:31.557Z,32.87
2017-09-29T23:37:59.156Z,32.90
2017-09-29T23:40:28.433Z,31.63
2017-09-29T23:42:56.361Z,32.10
2017-09-29T23:45:24.537Z,32.90
2017-09-29T23:47:52.127Z,33.17
2017-09-29T23:50:21.314Z,34.20
2017-09-29T23:52:48.908Z,40.73
2017-09-29T23:55:16.957Z,32.63
2017-09-29T23:57:44.528Z,32.93
